Time;durP1;ratioP1;P1;durP2;ratioP2;P2;SDS_P1;SDS_P2;PMS_P1;PMS_P2;Temp;Humidity;BMP_temperature;BMP_pressure;BME280_temperature;BME280_humidity;BME280_pressure;Samples;Min_cycle;Max_cycle;Signal;HPM_P1;HPM_P2
2022/02/20 00:00:26;;;;;;;23.50;6.00;;;;;;;5.15;77.68;99084.94;25170;1315;3050888;-65
2022/02/20 00:02:55;;;;;;;16.90;6.70;;;;;;;4.97;78.32;99084.48;25091;1313;3026706;-63
2022/02/20 00:05:24;;;;;;;15.80;5.00;;;;;;;5.00;77.90;99085.73;25170;1314;3055498;-65
2022/02/20 00:07:53;;;;;;;20.00;5.50;;;;;;;4.98;78.09;99083.60;25130;1316;3027238;-66
2022/02/20 00:10:22;;;;;;;17.90;5.70;;;;;;;5.44;77.73;99082.73;25090;1316;3052205;-65
2022/02/20 00:12:51;;;;;;;17.20;6.10;;;;;;;5.68;75.98;99081.63;25162;1316;3029852;-66
2022/02/20 00:15:22;;;;;;;25.20;7.30;;;;;;;5.58;76.36;99073.25;25178;1315;3059646;-66
2022/02/20 00:17:53;;;;;;;28.20;7.40;;;;;;;5.34;76.67;99070.34;25086;1316;3026620;-64
2022/02/20 00:20:25;;;;;;;26.00;7.00;;;;;;;4.97;77.75;99067.98;25144;1313;3052250;-66
2022/02/20 00:22:55;;;;;;;23.30;8.40;;;;;;;4.78;78.51;99072.80;25109;1316;3026655;-65
2022/02/20 00:25:25;;;;;;;18.90;6.70;;;;;;;4.83;78.60;99077.09;25087;1316;3028633;-67
2022/02/20 00:27:54;;;;;;;27.80;8.00;;;;;;;5.13;77.91;99080.34;25111;1314;3027213;-64
2022/02/20 00:30:24;;;;;;;20.20;8.30;;;;;;;5.30;77.59;99084.77;25173;1315;3026656;-66
2022/02/20 00:32:58;;;;;;;22.90;7.60;;;;;;;5.30;77.01;99082.71;25132;1314;3026411;-64
2022/02/20 00:35:28;;;;;;;25.40;8.80;;;;;;;5.09;77.50;99073.19;25149;1316;3027271;-65
2022/02/20 00:37:57;;;;;;;31.20;9.40;;;;;;;4.88;78.18;99064.91;25182;1316;3028654;-65
2022/02/20 00:40:28;;;;;;;23.30;9.40;;;;;;;4.62;79.23;99064.65;25084;1316;3026440;-65
2022/02/20 00:42:57;;;;;;;29.00;9.30;;;;;;;4.61;79.56;99061.06;25141;1316;3048902;-66
2022/02/20 00:45:27;;;;;;;25.10;8.00;;;;;;;5.23;78.23;99065.08;25099;1316;3026826;-66
2022/02/20 00:47:56;;;;;;;26.70;8.80;;;;;;;5.82;75.78;99062.92;25117;1316;3026565;-65
2022/02/20 00:50:26;;;;;;;26.90;9.70;;;;;;;5.29;76.69;99071.80;25178;1315;3026561;-64
2022/02/20 00:52:54;;;;;;;29.00;9.70;;;;;;;5.39;76.39;99065.42;25122;1316;3052319;-65
2022/02/20 00:55:25;;;;;;;20.40;9.30;;;;;;;5.20;76.98;99069.95;25154;1316;3027617;-67
2022/02/20 00:57:54;;;;;;;26.70;10.30;;;;;;;4.98;77.37;99071.59;25158;1315;3049116;-66
2022/02/20 01:00:23;;;;;;;25.10;8.50;;;;;;;4.67;79.12;99076.23;25160;1313;3028918;-65
2022/02/20 01:02:52;;;;;;;30.40;8.10;;;;;;;5.31;77.62;99080.23;25116;1314;3069437;-67
2022/02/20 01:05:22;;;;;;;32.50;9.20;;;;;;;5.56;75.96;99073.17;25136;1316;3027146;-67
2022/02/20 01:07:51;;;;;;;20.40;9.10;;;;;;;5.63;75.64;99071.45;25105;1316;3026981;-64
2022/02/20 01:10:20;;;;;;;25.30;9.70;;;;;;;5.26;76.50;99077.52;25162;1316;3068301;-66
2022/02/20 01:12:51;;;;;;;38.90;11.20;;;;;;;5.32;76.00;99077.22;25128;1313;3026466;-65
2022/02/20 01:15:19;;;;;;;22.30;7.80;;;;;;;4.94;77.07;99079.55;25139;1315;3026425;-66
2022/02/20 01:17:50;;;;;;;24.10;8.40;;;;;;;4.67;78.58;99080.06;25146;1313;3071063;-66
2022/02/20 01:20:19;;;;;;;31.50;10.20;;;;;;;5.51;76.79;99072.15;25102;1313;3026898;-64
2022/02/20 01:22:48;;;;;;;26.50;7.90;;;;;;;5.55;75.51;99068.55;25168;1313;3053827;-65
2022/02/20 01:25:18;;;;;;;36.20;10.40;;;;;;;5.30;76.46;99076.27;25111;1313;3027301;-65
2022/02/20 01:27:47;;;;;;;27.70;10.00;;;;;;;5.18;76.81;99079.73;25139;1313;3027786;-66
2022/02/20 01:30:17;;;;;;;33.90;11.30;;;;;;;4.98;77.30;99087.39;25139;1313;3053074;-65
2022/02/20 01:32:46;;;;;;;38.40;12.00;;;;;;;4.91;77.39;99082.83;25092;1313;3027055;-66
2022/02/20 01:35:15;;;;;;;30.10;9.60;;;;;;;4.80;77.82;99086.09;25148;1316;3026493;-65
2022/02/20 01:37:45;;;;;;;26.10;9.20;;;;;;;4.86;78.36;99082.88;25156;1316;3053026;-65
2022/02/20 01:40:15;;;;;;;26.10;10.50;;;;;;;5.21;77.21;99078.73;25085;1316;3026441;-64
2022/02/20 01:42:44;;;;;;;26.10;8.50;;;;;;;5.11;77.41;99083.69;25129;1316;3052667;-65
2022/02/20 01:45:14;;;;;;;26.30;8.80;;;;;;;5.08;76.78;99083.34;25153;1316;3026868;-65
2022/02/20 01:47:43;;;;;;;22.60;9.40;;;;;;;4.72;78.14;99079.66;25115;1316;3052402;-66
2022/02/20 01:50:15;;;;;;;36.30;10.40;;;;;;;4.60;78.50;99080.51;25110;1313;3026206;-65
2022/02/20 01:52:48;;;;;;;21.20;7.40;;;;;;;4.31;80.12;99087.09;25177;1316;3052975;-64
2022/02/20 01:55:17;;;;;;;25.00;8.90;;;;;;;5.18;78.14;99084.23;25125;1313;3026875;-66
2022/02/20 01:58:10;;;;;;;31.40;8.70;;;;;;;5.34;76.21;99079.70;25097;1313;3052123;-63
2022/02/20 02:00:59;;;;;;;29.10;11.00;;;;;;;5.27;76.44;99096.39;25163;1313;3052221;-64
2022/02/20 02:03:49;;;;;;;32.30;9.30;;;;;;;5.00;76.52;99093.73;25161;1315;3052728;-63
2022/02/20 02:06:31;;;;;;;24.20;9.60;;;;;;;4.84;77.06;99098.42;25103;1316;3056943;-63
2022/02/20 02:09:01;;;;;;;14.60;5.80;;;;;;;4.63;78.15;99104.01;25118;1313;3026660;-65
2022/02/20 02:12:08;;;;;;;28.30;9.50;;;;;;;4.50;78.50;99112.30;25050;1313;3056348;-66
2022/02/20 02:15:04;;;;;;;28.80;9.00;;;;;;;5.26;77.05;99114.64;25157;1313;3051122;-66
2022/02/20 02:17:53;;;;;;;27.30;10.20;;;;;;;5.16;76.61;99111.42;25098;1313;3071638;-67
2022/02/20 02:20:31;;;;;;;25.30;10.50;;;;;;;4.94;76.92;99114.11;25128;1313;3051538;-66
2022/02/20 02:23:24;;;;;;;31.50;11.10;;;;;;;4.84;76.98;99116.48;25072;1315;3052802;-65
2022/02/20 02:25:59;;;;;;;30.90;11.00;;;;;;;4.61;77.68;99127.31;25098;1313;3053112;-63
2022/02/20 02:28:52;;;;;;;31.30;9.10;;;;;;;4.54;77.81;99125.19;25150;1316;3059065;-66
2022/02/20 02:31:22;;;;;;;23.00;7.90;;;;;;;5.06;77.45;99128.34;25127;1312;3026915;-65
2022/02/20 02:33:51;;;;;;;28.50;9.40;;;;;;;5.38;75.54;99140.30;25140;1315;3029676;-66
2022/02/20 02:36:20;;;;;;;26.30;9.00;;;;;;;4.96;76.35;99141.29;25119;1313;3058404;-65
2022/02/20 02:38:49;;;;;;;23.90;9.00;;;;;;;4.70;77.23;99134.92;25158;1313;3026511;-66
2022/02/20 02:41:21;;;;;;;27.10;10.60;;;;;;;4.61;77.35;99136.85;25131;1313;3052428;-66
2022/02/20 02:43:54;;;;;;;23.20;8.00;;;;;;;4.53;76.91;99135.98;25107;1313;3056469;-67
2022/02/20 02:46:26;;;;;;;27.80;9.90;;;;;;;4.34;77.59;99141.94;25142;1313;3027092;-65
2022/02/20 02:48:56;;;;;;;24.70;8.60;;;;;;;4.85;76.74;99143.64;25156;1312;3026655;-67
2022/02/20 02:51:27;;;;;;;27.10;8.80;;;;;;;5.18;74.94;99141.38;25126;1313;3027395;-63
2022/02/20 02:53:57;;;;;;;23.80;10.00;;;;;;;5.02;74.72;99146.23;25118;1313;3026465;-65
2022/02/20 02:56:26;;;;;;;29.10;10.90;;;;;;;4.81;74.63;99145.55;25119;1316;3053113;-65
2022/02/20 02:58:55;;;;;;;28.90;13.90;;;;;;;4.45;75.41;99153.28;25137;1313;3026838;-63
2022/02/20 03:01:24;;;;;;;36.50;12.00;;;;;;;4.21;76.27;99157.21;25070;1316;3052554;-65
2022/02/20 03:03:53;;;;;;;42.90;12.20;;;;;;;4.17;76.29;99161.68;25176;1313;3025956;-65
2022/02/20 03:06:25;;;;;;;35.30;10.60;;;;;;;4.75;75.05;99157.10;25151;1312;3056200;-67
2022/02/20 03:09:06;;;;;;;34.90;11.10;;;;;;;5.05;73.50;99165.55;25091;1313;3051353;-67
2022/02/20 03:11:36;;;;;;;35.20;13.00;;;;;;;4.94;73.27;99161.52;25124;1313;3026667;-63
2022/02/20 03:14:06;;;;;;;31.60;11.80;;;;;;;4.70;72.94;99165.98;25102;1313;3026634;-66
2022/02/20 03:16:35;;;;;;;40.70;13.30;;;;;;;4.44;73.48;99163.20;25157;1312;3026484;-65
2022/02/20 03:19:07;;;;;;;34.20;13.50;;;;;;;4.24;74.16;99164.20;25176;1312;3054516;-68
2022/02/20 03:21:38;;;;;;;31.30;10.60;;;;;;;3.80;75.58;99174.52;25143;1313;3026670;-63
2022/02/20 03:24:08;;;;;;;23.50;9.30;;;;;;;3.99;75.39;99172.77;25124;1316;3026406;-66
2022/02/20 03:26:37;;;;;;;25.30;8.80;;;;;;;4.63;73.75;99168.70;25141;1316;3029253;-64
2022/02/20 03:29:07;;;;;;;42.40;12.00;;;;;;;4.58;73.27;99163.17;25111;1316;3053776;-66
2022/02/20 03:31:36;;;;;;;39.40;13.30;;;;;;;4.57;72.96;99163.39;25121;1313;3028924;-64
2022/02/20 03:34:06;;;;;;;38.10;12.80;;;;;;;4.50;72.89;99161.08;25113;1313;3026204;-65
2022/02/20 03:36:36;;;;;;;33.90;12.50;;;;;;;4.19;73.50;99171.14;25173;1313;3026569;-65
2022/02/20 03:39:14;;;;;;;35.30;11.40;;;;;;;3.90;74.41;99166.37;25103;1313;3051313;-65
2022/02/20 03:41:43;;;;;;;30.50;11.40;;;;;;;3.80;74.63;99168.11;25114;1316;3026533;-65
2022/02/20 03:44:15;;;;;;;23.60;9.70;;;;;;;3.67;75.52;99171.54;25155;1313;3026951;-65
2022/02/20 03:46:56;;;;;;;23.80;9.50;;;;;;;4.35;74.35;99163.02;25135;1316;3055946;-66
2022/02/20 03:49:26;;;;;;;25.90;9.00;;;;;;;4.73;72.62;99163.61;25174;1312;3026710;-65
2022/02/20 03:52:03;;;;;;;25.70;8.70;;;;;;;4.71;72.12;99167.67;25140;1312;3069077;-63
2022/02/20 03:54:45;;;;;;;25.60;8.80;;;;;;;4.36;72.42;99169.92;25131;1312;3052002;-66
2022/02/20 03:57:15;;;;;;;30.90;11.30;;;;;;;4.18;72.85;99178.48;25133;1313;3026363;-67
2022/02/20 04:00:06;;;;;;;29.20;11.80;;;;;;;3.77;74.23;99177.73;25117;1312;3052110;-65
2022/02/20 04:02:44;;;;;;;32.50;14.10;;;;;;;3.64;74.45;99179.98;25093;1312;3057466;-65
2022/02/20 04:05:18;;;;;;;28.30;12.10;;;;;;;3.70;74.61;99182.17;25119;1313;3027002;-65
2022/02/20 04:07:48;;;;;;;35.10;11.00;;;;;;;4.07;73.51;99179.56;25183;1313;3026879;-65
2022/02/20 04:10:17;;;;;;;22.60;9.10;;;;;;;4.25;72.59;99170.23;25149;1316;3026759;-65
2022/02/20 04:12:47;;;;;;;26.90;9.80;;;;;;;4.27;72.08;99173.78;25109;1313;3028354;-64
2022/02/20 04:15:16;;;;;;;27.60;9.30;;;;;;;3.75;73.41;99175.39;25088;1316;3027804;-65
2022/02/20 04:17:47;;;;;;;28.70;9.70;;;;;;;3.72;73.17;99177.57;25114;1315;3027301;-65
2022/02/20 04:20:18;;;;;;;29.40;9.60;;;;;;;3.60;73.43;99175.43;25084;1316;3028566;-65
2022/02/20 04:22:47;;;;;;;23.80;9.40;;;;;;;3.46;73.69;99178.55;25115;1316;3027000;-64
2022/02/20 04:25:19;;;;;;;20.60;7.00;;;;;;;3.22;74.66;99184.06;25137;1313;3028326;-65
2022/02/20 04:27:49;;;;;;;26.10;9.50;;;;;;;4.17;73.16;99185.94;25172;1313;3027031;-66
2022/02/20 04:30:21;;;;;;;18.60;7.90;;;;;;;4.33;71.05;99187.75;25138;1312;3026807;-63
2022/02/20 04:32:56;;;;;;;23.90;8.20;;;;;;;4.34;70.16;99190.64;25079;1316;3068954;-64
2022/02/20 04:35:26;;;;;;;25.40;8.70;;;;;;;4.03;70.49;99197.59;25081;1316;3026626;-66
2022/02/20 04:37:56;;;;;;;26.30;9.10;;;;;;;3.93;70.27;99198.48;25196;1313;3027090;-63
2022/02/20 04:40:26;;;;;;;21.60;8.40;;;;;;;3.50;71.28;99202.63;25098;1316;3070843;-66
2022/02/20 04:43:01;;;;;;;27.90;8.50;;;;;;;3.49;71.06;99213.77;25079;1316;3048033;-63
2022/02/20 04:45:30;;;;;;;18.10;8.30;;;;;;;3.41;70.82;99205.20;25153;1313;3026980;-66
2022/02/20 04:47:59;;;;;;;21.70;8.10;;;;;;;3.27;71.04;99223.70;25042;1315;3070467;-65
2022/02/20 04:50:29;;;;;;;24.80;7.90;;;;;;;3.12;71.23;99226.64;25146;1316;3027258;-66
2022/02/20 04:53:02;;;;;;;21.60;7.80;;;;;;;3.10;71.32;99231.19;25160;1314;3027196;-66
2022/02/20 04:55:34;;;;;;;25.30;8.50;;;;;;;3.83;70.11;99228.46;25124;1314;3026697;-66
2022/02/20 04:58:03;;;;;;;19.90;7.00;;;;;;;4.21;67.51;99235.21;25133;1316;3026816;-64
2022/02/20 05:00:33;;;;;;;22.50;6.90;;;;;;;4.07;66.80;99236.08;25081;1313;3054744;-62
2022/02/20 05:03:02;;;;;;;16.80;6.30;;;;;;;4.01;66.39;99236.46;25117;1313;3026647;-63
2022/02/20 05:05:43;;;;;;;20.60;6.60;;;;;;;3.66;66.19;99244.50;25180;1313;3048860;-66
2022/02/20 05:08:12;;;;;;;19.20;7.00;;;;;;;3.63;65.56;99242.17;25134;1313;3029260;-64
2022/02/20 05:10:41;;;;;;;25.20;7.30;;;;;;;3.62;65.33;99243.11;25142;1316;3070429;-63
2022/02/20 05:13:12;;;;;;;17.50;5.70;;;;;;;3.54;65.56;99249.26;25133;1313;3026151;-66
2022/02/20 05:15:43;;;;;;;17.20;6.30;;;;;;;3.34;66.42;99243.20;25138;1316;3027269;-64
2022/02/20 05:18:14;;;;;;;16.50;6.60;;;;;;;3.40;66.08;99250.95;25188;1314;3027126;-64
2022/02/20 05:20:54;;;;;;;22.60;6.80;;;;;;;3.28;66.32;99248.10;25158;1313;3028922;-64
2022/02/20 05:23:24;;;;;;;23.10;7.60;;;;;;;3.18;66.50;99240.98;25142;1313;3048692;-66
2022/02/20 05:25:52;;;;;;;20.90;7.40;;;;;;;2.95;67.38;99248.30;25091;1313;3027378;-64
2022/02/20 05:28:22;;;;;;;21.50;7.50;;;;;;;2.89;67.40;99242.28;25158;1316;3026497;-68
2022/02/20 05:30:53;;;;;;;23.90;5.60;;;;;;;2.88;67.48;99242.65;25135;1316;3026527;-67
2022/02/20 05:33:28;;;;;;;21.20;7.10;;;;;;;3.06;67.10;99233.59;25140;1313;3052045;-64
2022/02/20 05:35:57;;;;;;;18.10;6.40;;;;;;;3.05;66.65;99240.70;25131;1316;3026644;-65
2022/02/20 05:38:35;;;;;;;16.20;5.20;;;;;;;3.01;66.66;99239.65;25069;1316;3071767;-63
2022/02/20 05:41:04;;;;;;;15.60;6.50;;;;;;;2.93;66.44;99251.32;25172;1316;3029721;-65
2022/02/20 05:43:34;;;;;;;17.70;7.00;;;;;;;2.84;66.47;99251.08;25120;1316;3050851;-67
2022/02/20 05:46:04;;;;;;;18.30;6.20;;;;;;;2.85;66.59;99259.02;25140;1313;3027235;-64
2022/02/20 05:48:37;;;;;;;15.20;6.10;;;;;;;3.03;66.05;99252.89;25106;1316;3048782;-64
2022/02/20 05:51:12;;;;;;;19.20;6.40;;;;;;;3.05;66.01;99251.10;25159;1316;3052013;-66
2022/02/20 05:53:45;;;;;;;24.10;7.50;;;;;;;3.05;65.83;99264.23;25116;1314;3050904;-68
2022/02/20 05:56:15;;;;;;;13.90;5.10;;;;;;;3.04;65.81;99261.34;25121;1315;3026896;-66
2022/02/20 05:58:56;;;;;;;17.90;7.10;;;;;;;2.99;65.65;99273.11;25149;1316;3054725;-66
2022/02/20 06:01:25;;;;;;;20.50;5.90;;;;;;;3.06;65.44;99271.16;25101;1313;3026537;-65
2022/02/20 06:04:01;;;;;;;21.40;5.80;;;;;;;3.16;65.08;99272.18;25124;1316;3049162;-64
2022/02/20 06:06:35;;;;;;;15.70;5.30;;;;;;;3.21;64.86;99269.76;25164;1313;3055209;-67
2022/02/20 06:09:14;;;;;;;17.90;5.90;;;;;;;3.36;64.60;99265.98;25167;1313;3052172;-64
2022/02/20 06:11:47;;;;;;;16.30;6.20;;;;;;;3.46;64.07;99256.11;24802;1313;3496838;-65
2022/02/20 06:14:36;;;;;;;17.50;6.60;;;;;;;3.40;64.47;99258.42;25109;1313;3052709;-65
2022/02/20 06:17:47;;;;;;;15.60;6.30;;;;;;;3.48;64.28;99262.96;24971;1319;3053581;-67
2022/02/20 06:20:54;;;;;;;21.40;6.70;;;;;;;3.59;64.08;99266.21;24825;1324;3052084;-64
2022/02/20 06:23:46;;;;;;;15.90;6.10;;;;;;;3.52;64.13;99272.73;25018;1319;3071847;-67
2022/02/20 06:26:21;;;;;;;18.40;7.00;;;;;;;3.67;63.54;99277.70;25114;1314;3048652;-66
2022/02/20 06:28:50;;;;;;;18.20;6.70;;;;;;;3.77;63.02;99275.98;25131;1316;3026484;-66
2022/02/20 06:31:22;;;;;;;18.50;6.80;;;;;;;3.90;62.79;99272.75;25196;1314;3068938;-68
2022/02/20 06:33:52;;;;;;;17.70;7.10;;;;;;;3.97;62.91;99271.10;25134;1316;3029069;-66
2022/02/20 06:36:23;;;;;;;21.10;6.60;;;;;;;4.09;62.04;99270.53;25119;1313;3029912;-66
2022/02/20 06:38:53;;;;;;;19.00;6.10;;;;;;;4.18;61.83;99277.09;25116;1313;3027099;-66
2022/02/20 06:41:22;;;;;;;18.20;6.50;;;;;;;4.19;62.10;99272.90;25183;1316;3026664;-65
2022/02/20 06:43:54;;;;;;;23.80;7.50;;;;;;;4.25;61.63;99272.86;25134;1313;3052724;-65
2022/02/20 06:46:33;;;;;;;17.60;6.60;;;;;;;4.32;61.43;99277.27;25120;1313;3054633;-65
2022/02/20 06:49:10;;;;;;;19.20;6.00;;;;;;;4.48;61.32;99276.98;25136;1313;3056573;-66
2022/02/20 06:52:11;;;;;;;16.30;6.60;;;;;;;4.42;60.39;99272.05;25073;1316;3049878;-67
2022/02/20 06:55:11;;;;;;;18.50;7.20;;;;;;;4.52;60.54;99277.89;25144;1313;3056122;-66
2022/02/20 06:57:54;;;;;;;20.00;6.40;;;;;;;4.58;60.30;99271.95;25145;1313;3051367;-65
2022/02/20 07:00:23;;;;;;;22.00;7.70;;;;;;;4.67;60.04;99274.73;25141;1313;3026263;-66
2022/02/20 07:02:52;;;;;;;21.80;7.00;;;;;;;4.60;59.57;99275.68;25152;1313;3026705;-65
2022/02/20 07:05:22;;;;;;;18.30;6.50;;;;;;;4.70;59.14;99272.34;25105;1316;3029190;-66
2022/02/20 07:07:51;;;;;;;17.90;6.90;;;;;;;4.67;58.74;99282.87;25123;1312;3069309;-64
2022/02/20 07:10:20;;;;;;;24.10;6.80;;;;;;;4.71;58.79;99267.79;25141;1316;3026384;-68
2022/02/20 07:12:51;;;;;;;17.10;6.20;;;;;;;4.83;58.53;99266.27;25122;1313;3051138;-67
2022/02/20 07:15:20;;;;;;;24.20;7.90;;;;;;;4.81;58.38;99272.44;25162;1313;3027684;-67
2022/02/20 07:17:49;;;;;;;19.00;6.90;;;;;;;4.84;58.04;99265.36;25105;1313;3054674;-66
2022/02/20 07:20:18;;;;;;;25.10;8.70;;;;;;;4.85;58.37;99271.22;25175;1313;3028562;-67
2022/02/20 07:22:47;;;;;;;22.90;7.80;;;;;;;4.98;58.40;99271.41;25106;1313;3053354;-66
2022/02/20 07:25:16;;;;;;;22.90;8.30;;;;;;;5.09;58.79;99270.06;25152;1313;3026799;-65
2022/02/20 07:27:45;;;;;;;27.40;8.70;;;;;;;5.13;58.43;99282.94;25125;1313;3057894;-65
2022/02/20 07:30:14;;;;;;;23.50;8.10;;;;;;;5.27;58.17;99281.14;25159;1313;3026947;-64
2022/02/20 07:32:43;;;;;;;18.50;6.90;;;;;;;5.25;57.85;99290.23;25107;1316;3053689;-66
2022/02/20 07:35:12;;;;;;;20.00;6.70;;;;;;;5.19;57.43;99291.73;25150;1314;3026965;-67
2022/02/20 07:37:41;;;;;;;20.00;8.10;;;;;;;5.28;57.50;99294.33;25125;1313;3051430;-64
2022/02/20 07:40:11;;;;;;;22.60;6.60;;;;;;;5.33;57.05;99295.14;25145;1316;3029319;-64
2022/02/20 07:42:41;;;;;;;16.60;6.40;;;;;;;5.36;56.35;99293.44;25134;1313;3048790;-65
2022/02/20 07:45:10;;;;;;;25.30;7.20;;;;;;;5.36;56.80;99295.88;25156;1316;3026468;-67
2022/02/20 07:47:59;;;;;;;19.40;8.00;;;;;;;5.51;56.80;99296.98;25150;1313;3069875;-66
2022/02/20 07:50:33;;;;;;;20.90;6.70;;;;;;;5.65;56.75;99305.94;25165;1313;3048683;-66
2022/02/20 07:53:03;;;;;;;22.40;7.90;;;;;;;5.60;56.69;99309.81;25175;1316;3051717;-67
2022/02/20 07:55:33;;;;;;;25.80;8.90;;;;;;;5.67;56.53;99306.71;25132;1313;3025999;-65
2022/02/20 07:58:05;;;;;;;24.50;7.70;;;;;;;5.69;56.75;99309.77;25165;1317;3028862;-67
2022/02/20 08:00:34;;;;;;;21.00;7.80;;;;;;;5.83;56.73;99302.21;25154;1316;3027068;-66
2022/02/20 08:03:03;;;;;;;24.80;8.20;;;;;;;6.03;56.35;99299.80;25134;1316;3027079;-65
2022/02/20 08:05:33;;;;;;;24.00;8.50;;;;;;;5.98;56.18;99307.69;25125;1313;3026795;-66
2022/02/20 08:08:02;;;;;;;25.00;8.10;;;;;;;6.06;55.99;99308.38;25182;1316;3027062;-66
2022/02/20 08:10:31;;;;;;;22.30;8.70;;;;;;;5.96;55.17;99310.88;25179;1316;3055469;-67
2022/02/20 08:13:01;;;;;;;33.90;11.50;;;;;;;6.03;54.67;99304.88;25151;1316;3026928;-66
2022/02/20 08:15:31;;;;;;;26.20;9.80;;;;;;;6.15;53.70;99307.26;25147;1313;3026185;-67
2022/02/20 08:18:03;;;;;;;34.00;10.10;;;;;;;6.21;53.80;99305.27;25136;1313;3052507;-67
2022/02/20 08:20:32;;;;;;;26.20;9.80;;;;;;;6.33;53.73;99305.95;25145;1317;3027001;-65
2022/02/20 08:23:01;;;;;;;28.40;8.80;;;;;;;6.46;53.44;99303.59;25156;1312;3030017;-64
2022/02/20 08:25:30;;;;;;;25.60;8.40;;;;;;;6.57;53.21;99308.16;25139;1312;3055590;-67
2022/02/20 08:27:59;;;;;;;32.80;8.30;;;;;;;6.67;52.80;99302.66;25169;1316;3027009;-68
2022/02/20 08:30:29;;;;;;;23.30;8.30;;;;;;;6.69;51.93;99304.85;25171;1313;3049909;-64
2022/02/20 08:32:58;;;;;;;26.70;8.40;;;;;;;6.59;51.08;99319.38;25160;1313;3026620;-66
2022/02/20 08:35:27;;;;;;;24.60;7.60;;;;;;;6.58;51.00;99305.87;25138;1313;3055759;-66
2022/02/20 08:37:56;;;;;;;23.80;8.60;;;;;;;6.65;50.91;99309.73;25185;1316;3027721;-66
2022/02/20 08:40:25;;;;;;;23.50;8.60;;;;;;;6.64;50.56;99317.23;25138;1313;3051236;-68
2022/02/20 08:42:56;;;;;;;24.50;8.00;;;;;;;6.60;50.38;99315.31;25175;1319;3028315;-64
2022/02/20 08:45:25;;;;;;;25.90;8.60;;;;;;;6.65;49.97;99308.98;25109;1316;3028388;-68
2022/02/20 08:47:55;;;;;;;28.70;9.80;;;;;;;6.71;49.97;99314.45;25130;1318;3054562;-66
2022/02/20 08:50:23;;;;;;;21.00;8.30;;;;;;;6.80;49.92;99309.16;25148;1319;3026534;-66
2022/02/20 08:52:53;;;;;;;27.70;9.40;;;;;;;6.89;50.53;99309.08;25119;1316;3051416;-65
2022/02/20 08:55:23;;;;;;;30.80;8.40;;;;;;;6.84;49.70;99310.20;25126;1313;3026839;-67
2022/02/20 08:57:53;;;;;;;22.30;8.40;;;;;;;6.82;49.23;99309.59;25120;1316;3026091;-65
2022/02/20 09:00:22;;;;;;;19.50;7.40;;;;;;;6.96;49.18;99308.75;25135;1313;3026492;-67
2022/02/20 09:02:52;;;;;;;21.50;7.50;;;;;;;6.95;48.88;99304.80;25198;1314;3026300;-66
2022/02/20 09:05:21;;;;;;;19.20;6.90;;;;;;;7.03;48.92;99304.91;25085;1316;3026569;-68
2022/02/20 09:07:50;;;;;;;21.40;7.20;;;;;;;7.22;50.79;99313.08;25143;1316;3052200;-66
2022/02/20 09:10:19;;;;;;;17.30;6.60;;;;;;;7.28;51.67;99305.61;25133;1313;3026108;-67
2022/02/20 09:12:48;;;;;;;20.40;5.80;;;;;;;7.29;51.13;99307.88;25129;1316;3026883;-67
2022/02/20 09:15:17;;;;;;;19.50;6.30;;;;;;;7.30;49.95;99307.98;25140;1314;3048212;-67
2022/02/20 09:17:49;;;;;;;17.40;6.50;;;;;;;7.22;51.01;99305.91;25112;1316;3027027;-65
2022/02/20 09:20:18;;;;;;;15.00;5.50;;;;;;;7.32;51.48;99306.85;25128;1316;3026887;-64
2022/02/20 09:22:48;;;;;;;24.60;6.80;;;;;;;7.40;51.62;99304.17;25125;1316;3052134;-66
2022/02/20 09:25:16;;;;;;;20.60;6.30;;;;;;;7.43;51.00;99303.84;25149;1313;3026545;-66
2022/02/20 09:27:46;;;;;;;23.50;7.50;;;;;;;7.45;51.20;99293.98;25165;1313;3057540;-67
2022/02/20 09:30:15;;;;;;;27.20;8.50;;;;;;;7.54;50.87;99286.37;25134;1313;3027302;-66
2022/02/20 09:32:47;;;;;;;24.80;6.80;;;;;;;7.58;50.39;99292.83;25187;1313;3055004;-69
2022/02/20 09:35:18;;;;;;;26.20;5.60;;;;;;;7.60;50.31;99300.21;25111;1316;3026630;-69
2022/02/20 09:37:48;;;;;;;20.00;6.40;;;;;;;7.60;50.55;99289.23;25169;1316;3026274;-68
2022/02/20 09:40:17;;;;;;;13.30;5.20;;;;;;;7.61;50.39;99290.90;25184;1313;3029394;-70
2022/02/20 09:42:46;;;;;;;15.40;5.80;;;;;;;7.62;49.98;99299.24;25160;1316;3057933;-67
2022/02/20 09:45:15;;;;;;;14.10;4.50;;;;;;;7.70;49.92;99299.34;25132;1316;3026318;-68
2022/02/20 09:47:45;;;;;;;16.90;5.10;;;;;;;7.65;50.20;99288.80;25096;1316;3026714;-69
2022/02/20 09:50:14;;;;;;;16.50;4.90;;;;;;;7.67;50.13;99285.00;25161;1316;3026953;-64
2022/02/20 09:52:43;;;;;;;10.80;3.60;;;;;;;7.92;49.95;99290.35;25139;1313;3053645;-65
2022/02/20 09:55:12;;;;;;;11.60;3.50;;;;;;;7.74;49.72;99289.91;25137;1313;3028462;-67
2022/02/20 09:57:41;;;;;;;11.90;3.90;;;;;;;7.72;50.07;99280.10;25164;1313;3056064;-65
2022/02/20 10:00:10;;;;;;;10.90;4.10;;;;;;;7.57;50.59;99281.53;25126;1316;3028538;-68
2022/02/20 10:02:44;;;;;;;13.30;5.00;;;;;;;7.72;50.61;99282.71;25189;1316;3052537;-66
2022/02/20 10:05:17;;;;;;;10.20;3.90;;;;;;;7.64;50.26;99280.48;25094;1316;3027231;-67
2022/02/20 10:07:47;;;;;;;13.80;4.40;;;;;;;7.56;50.29;99273.20;25086;1316;3052299;-68
2022/02/20 10:10:17;;;;;;;18.60;4.40;;;;;;;7.78;50.06;99271.58;25161;1316;3026392;-67
2022/02/20 10:12:58;;;;;;;16.70;4.70;;;;;;;7.80;50.37;99279.98;25141;1316;3056495;-67
2022/02/20 10:15:39;;;;;;;11.70;4.20;;;;;;;7.87;50.38;99280.19;25141;1313;3050089;-68
2022/02/20 10:18:29;;;;;;;11.60;3.90;;;;;;;7.90;50.09;99279.13;25068;1313;3055696;-64
2022/02/20 10:21:30;;;;;;;14.80;4.40;;;;;;;7.73;49.94;99266.04;25171;1316;3050921;-65
2022/02/20 10:24:34;;;;;;;14.80;4.40;;;;;;;7.97;50.63;99269.19;24978;1321;3070063;-63
2022/02/20 10:27:22;;;;;;;12.30;4.10;;;;;;;7.91;50.94;99278.93;25154;1313;3049007;-67
2022/02/20 10:30:17;;;;;;;11.80;4.50;;;;;;;8.16;49.35;99267.47;25123;1316;3051414;-66
2022/02/20 10:33:02;;;;;;;12.50;4.00;;;;;;;8.20;49.78;99269.52;25157;1313;3052323;-64
2022/02/20 10:35:33;;;;;;;9.00;3.40;;;;;;;8.25;49.92;99269.43;25125;1313;3059463;-66
2022/02/20 10:38:06;;;;;;;14.20;3.40;;;;;;;8.20;48.46;99275.83;25148;1313;3026499;-66
2022/02/20 10:40:36;;;;;;;13.70;4.60;;;;;;;8.20;47.67;99268.98;25128;1316;3054459;-66
2022/02/20 10:43:06;;;;;;;9.20;3.70;;;;;;;8.30;47.76;99259.59;25152;1316;3028489;-69
2022/02/20 10:45:37;;;;;;;18.10;4.90;;;;;;;8.55;47.57;99252.48;25178;1312;3026978;-66
2022/02/20 10:48:15;;;;;;;10.90;4.10;;;;;;;8.50;47.04;99262.13;25182;1313;3026773;-65
2022/02/20 10:50:44;;;;;;;9.60;3.40;;;;;;;8.33;47.08;99276.31;25228;1313;3053396;-66
2022/02/20 10:53:15;;;;;;;10.60;3.80;;;;;;;8.49;46.83;99260.28;25155;1313;3028492;-66
2022/02/20 10:55:47;;;;;;;14.40;3.60;;;;;;;8.49;46.82;99258.90;25094;1312;3051767;-66
2022/02/20 10:58:24;;;;;;;8.30;3.10;;;;;;;8.50;45.92;99255.67;25143;1312;3026274;-65
2022/02/20 11:00:55;;;;;;;25.90;4.20;;;;;;;8.41;45.44;99253.73;25106;1313;3051783;-69
2022/02/20 11:03:25;;;;;;;12.70;3.50;;;;;;;8.35;46.49;99253.16;25154;1316;3027812;-66
2022/02/20 11:05:55;;;;;;;13.00;3.40;;;;;;;8.58;46.29;99242.49;25147;1316;3027564;-66
2022/02/20 11:08:26;;;;;;;15.00;3.50;;;;;;;8.59;45.32;99247.50;25182;1313;3027149;-68
2022/02/20 11:10:55;;;;;;;11.70;3.30;;;;;;;8.56;45.44;99249.29;25144;1313;3026118;-68
2022/02/20 11:13:27;;;;;;;16.60;4.40;;;;;;;8.59;45.20;99248.59;25118;1313;3027453;-65
2022/02/20 11:15:56;;;;;;;10.70;3.20;;;;;;;8.52;44.81;99259.27;25087;1316;3027529;-66
2022/02/20 11:18:25;;;;;;;15.50;4.40;;;;;;;8.21;45.24;99251.10;25158;1316;3053905;-66
2022/02/20 11:20:55;;;;;;;12.70;3.90;;;;;;;8.01;46.02;99234.79;25130;1313;3026574;-66
2022/02/20 11:23:26;;;;;;;20.10;4.90;;;;;;;8.31;46.00;99243.45;25147;1313;3052494;-68
2022/02/20 11:25:56;;;;;;;14.60;3.30;;;;;;;8.27;46.25;99245.26;25169;1312;3026411;-66
2022/02/20 11:28:25;;;;;;;12.10;3.50;;;;;;;8.32;46.39;99250.56;25130;1313;3029376;-66
2022/02/20 11:30:55;;;;;;;12.70;3.40;;;;;;;8.20;46.30;99256.42;25087;1316;3026481;-63
2022/02/20 11:33:24;;;;;;;10.70;3.40;;;;;;;8.31;46.87;99251.14;25134;1316;3026032;-67
2022/02/20 11:35:53;;;;;;;11.30;3.90;;;;;;;8.20;46.86;99249.24;25119;1316;3071152;-66
2022/02/20 11:38:22;;;;;;;11.70;3.50;;;;;;;8.07;47.79;99246.85;25141;1316;3026587;-65
2022/02/20 11:40:59;;;;;;;12.80;3.90;;;;;;;8.39;47.38;99248.41;25115;1316;3026410;-67